Ashiya — JD2302 — position and weather

sailwx.info

Track history (hours):
 
Tides and Currents Weather Stations Pressure Air Temp Water Temp Dewpoint Dewpoint Depression Visibility Wind Speed Wind Dir Waves Ship Positions

Ashiya

Last reported at 2018-Jan-20 13:00 UTC. Time now 2018-Jan-20 13:14 UTC.
Position N 34°26' E 134°09'.

Length 96 m; draft 4.5 m.

Type: Cargo ship. MMSI: 431501871.

Date/timePositionNaut miles runAvg speedWind from/ knotsBaromVisibWave heightAir tempDewpointWater temp
2018-Jan-20 13:00N 34°26' E 134°09'913.3
2018-Jan-20 12:20N 34°24' E 134°20'413.1
2018-Jan-20 12:00N 34°26' E 134°25'612.9
2018-Jan-20 11:31N 34°28' E 134°32'612.9
2018-Jan-20 11:01N 34°30' E 134°39'612.7
2018-Jan-20 10:30N 34°33' E 134°46'612.6
2018-Jan-20 10:00N 34°36' E 134°53'612.0
2018-Jan-20 09:31N 34°38' E 135°00'510.2
2018-Jan-20 09:01N 34°36' E 135°06'612.7
2018-Jan-20 08:30N 34°37' E 135°13'4 7.5
2018-Jan-20 08:00N 34°41' E 135°14'1 1.7
2018-Jan-20 07:28N 34°41' E 135°12'0 0.0
2018-Jan-20 06:58N 34°41' E 135°12'0 0.0
2018-Jan-20 06:28N 34°41' E 135°12'0 0.0
2018-Jan-20 05:58N 34°41' E 135°12'0 0.0
2018-Jan-20 05:28N 34°41' E 135°12'0 0.0
2018-Jan-20 04:58N 34°41' E 135°12'0 0.0
2018-Jan-20 04:28N 34°41' E 135°12'0 0.0
2018-Jan-20 03:58N 34°41' E 135°12'0 0.0
2018-Jan-20 03:28N 34°41' E 135°12'0 0.0
2018-Jan-20 02:55N 34°41' E 135°12'0 0.0
2018-Jan-20 02:25N 34°41' E 135°12'0 0.0
2018-Jan-20 01:55N 34°41' E 135°12'0 0.0
2018-Jan-20 01:28N 34°41' E 135°12'0 0.0
2018-Jan-20 00:58N 34°41' E 135°12'0 0.0
2018-Jan-20 00:28N 34°41' E 135°12'0 0.0
2018-Jan-19 23:58N 34°41' E 135°12'0 0.0
2018-Jan-19 23:28N 34°41' E 135°12'0 0.0
2018-Jan-19 22:58N 34°41' E 135°12'0 0.0
2018-Jan-19 22:28N 34°41' E 135°12'0 0.0
2018-Jan-19 21:55N 34°41' E 135°12'0 0.0
2018-Jan-19 21:28N 34°41' E 135°12'0 0.0
2018-Jan-19 20:58N 34°41' E 135°12'0 0.0
2018-Jan-19 20:28N 34°41' E 135°12'0 0.0
2018-Jan-19 19:58N 34°41' E 135°12'0 0.0
2018-Jan-19 19:28N 34°41' E 135°12'0 0.0
2018-Jan-19 18:58N 34°41' E 135°12'0 0.0
2018-Jan-19 18:28N 34°41' E 135°12'0 0.0
2018-Jan-19 17:58N 34°41' E 135°12'0 0.0
2018-Jan-19 17:28N 34°41' E 135°12'0 0.0
2018-Jan-19 16:58N 34°41' E 135°12'0 0.0
2018-Jan-19 16:25N 34°41' E 135°12'0 0.0
2018-Jan-19 15:58N 34°41' E 135°12'0 0.0
2018-Jan-19 15:25N 34°41' E 135°12'0 0.0
2018-Jan-19 14:58N 34°41' E 135°12'0 0.0
2018-Jan-19 14:28N 34°41' E 135°12'0 0.0
2018-Jan-19 13:58N 34°41' E 135°12'0 0.0
2018-Jan-19 13:28N 34°41' E 135°12'0 0.0
2018-Jan-19 12:58N 34°41' E 135°12'0 0.0
2018-Jan-19 12:28N 34°41' E 135°12'0 0.0
2018-Jan-19 11:58N 34°41' E 135°12'0 0.0
2018-Jan-19 11:28N 34°41' E 135°12'0 0.0
2018-Jan-19 10:58N 34°41' E 135°12'0 0.0
2018-Jan-19 10:25N 34°41' E 135°12'0 0.0
2018-Jan-19 09:58N 34°41' E 135°12'0 0.0
2018-Jan-19 09:28N 34°41' E 135°12'0 0.0
2018-Jan-19 08:58N 34°41' E 135°12'0 0.0
2018-Jan-19 08:28N 34°41' E 135°12'0 0.0
2018-Jan-19 07:58N 34°41' E 135°12'0 0.0
2018-Jan-19 07:30N 34°41' E 135°12'3 5.2
2018-Jan-19 07:01N 34°39' E 135°15'0 0.0
2018-Jan-19 06:30N 34°39' E 135°15'0 0.0
2018-Jan-19 06:00N 34°39' E 135°15'0 0.0
2018-Jan-19 05:30N 34°39' E 135°15'1 2.2
2018-Jan-19 05:00N 34°40' E 135°15'1 2.9
2018-Jan-19 04:30N 34°41' E 135°17'0 0.2
2018-Jan-19 04:00N 34°41' E 135°17'4 7.6
2018-Jan-19 03:30N 34°37' E 135°15'612.6
2018-Jan-19 03:00N 34°35' E 135°08'611.1
2018-Jan-19 02:31N 34°37' E 135°02'611.6
2018-Jan-19 02:00N 34°35' E 134°55'510.4
2018-Jan-19 01:30N 34°33' E 134°49'611.0
2018-Jan-19 01:00N 34°31' E 134°43'611.9
2018-Jan-19 00:30N 34°29' E 134°36'612.3
2018-Jan-19 00:00N 34°27' E 134°29'612.3
2018-Jan-18 23:29N 34°24' E 134°22'611.7
2018-Jan-18 22:59N 34°24' E 134°15'7910.7
2018-Jan-18 15:37N 34°06' E 132°42'212.3
2018-Jan-18 15:29N 34°05' E 132°40'612.5
2018-Jan-18 15:00N 34°02' E 132°34'611.2
2018-Jan-18 14:30N 34°04' E 132°28'612.8
2018-Jan-18 14:00N 34°09' E 132°22'612.9
2018-Jan-18 13:30N 34°15' E 132°22'612.5
2018-Jan-18 13:00N 34°18' E 132°28'3 6.6
2018-Jan-18 12:30N 34°21' E 132°31'0 0.0
2018-Jan-18 11:59N 34°21' E 132°31'0 0.0
2018-Jan-18 11:29N 34°21' E 132°31'0 0.0
2018-Jan-18 10:59N 34°21' E 132°31'0 0.0
2018-Jan-18 10:29N 34°21' E 132°31'0 0.0
2018-Jan-18 09:59N 34°21' E 132°31'0 0.0
2018-Jan-18 09:26N 34°21' E 132°31'0 0.0
2018-Jan-18 08:59N 34°21' E 132°31'0 0.0
2018-Jan-18 08:26N 34°21' E 132°31'0 0.0
2018-Jan-18 07:59N 34°21' E 132°31'0 0.0
2018-Jan-18 07:29N 34°21' E 132°31'0 0.0
2018-Jan-18 06:59N 34°21' E 132°31'0 0.0
2018-Jan-18 06:29N 34°21' E 132°31'0 0.0
2018-Jan-18 05:59N 34°21' E 132°31'0 0.0
2018-Jan-18 05:29N 34°21' E 132°31'0 0.0
2018-Jan-18 04:59N 34°21' E 132°31'0 0.0
2018-Jan-18 04:30N 34°21' E 132°31'3 5.2
2018-Jan-18 04:00N 34°19' E 132°29'2 5.0
2018-Jan-18 03:30N 34°18' E 132°27'510.8
2018-Jan-18 03:00N 34°14' E 132°22'712.9
2018-Jan-18 02:28N 34°07' E 132°24'713.1
2018-Jan-18 01:55N 34°03' E 132°31'511.3
2018-Jan-18 01:31N 34°04' E 132°36'612.1
2018-Jan-18 01:01N 34°06' E 132°43'  
2018-Jan-12 15:00N 34°30' E 134°38'611.4
2018-Jan-12 14:30N 34°32' E 134°44'611.0
2018-Jan-12 14:00N 34°35' E 134°51'510.3
2018-Jan-12 13:31N 34°37' E 134°56'5 9.6
2018-Jan-12 13:00N 34°37' E 135°02'510.8
2018-Jan-12 12:31N 34°36' E 135°09'611.8
2018-Jan-12 12:01N 34°37' E 135°16'3 5.5
2018-Jan-12 11:30N 34°40' E 135°14'0 0.1
2018-Jan-12 11:00N 34°40' E 135°14'0 0.1
2018-Jan-12 10:30N 34°40' E 135°14'0 0.6
2018-Jan-12 10:00N 34°39' E 135°15'2 4.0
2018-Jan-12 09:31N 34°41' E 135°17'0 0.4
2018-Jan-12 08:58N 34°41' E 135°17'0 0.1
2018-Jan-12 08:28N 34°41' E 135°17'0 0.0
2018-Jan-12 07:58N 34°41' E 135°17'0 0.1
2018-Jan-12 07:28N 34°41' E 135°17'0 0.1
2018-Jan-12 06:58N 34°41' E 135°17'0 0.0
2018-Jan-12 06:28N 34°41' E 135°17'0 0.0
2018-Jan-12 06:00N 34°41' E 135°17'1 3.0
2018-Jan-12 05:30N 34°40' E 135°18'2 3.1
2018-Jan-12 04:58N 34°39' E 135°19'0 0.0
2018-Jan-12 04:28N 34°39' E 135°19'0 0.0
2018-Jan-12 03:58N 34°39' E 135°19'0 0.0
2018-Jan-12 03:28N 34°39' E 135°19'0 0.0
2018-Jan-12 02:58N 34°39' E 135°19'0 0.0
2018-Jan-12 02:28N 34°39' E 135°19'0 0.0
2018-Jan-12 01:58N 34°39' E 135°19'0 0.0
2018-Jan-12 01:28N 34°39' E 135°19'0 0.0
2018-Jan-12 00:58N 34°39' E 135°19'0 0.0
2018-Jan-12 00:28N 34°39' E 135°19'0 0.0
2018-Jan-11 23:58N 34°39' E 135°19'0 0.0
2018-Jan-11 23:28N 34°39' E 135°19'0 0.2
2018-Jan-11 23:00N 34°39' E 135°19'611.9
2018-Jan-11 22:30N 34°35' E 135°13'612.7
2018-Jan-11 22:00N 34°35' E 135°06'510.9
2018-Jan-11 21:31N 34°37' E 134°60'611.5
2018-Jan-11 21:00N 34°35' E 134°53'611.2
2018-Jan-11 20:31N 34°33' E 134°47'612.2
2018-Jan-11 20:00N 34°30' E 134°40'612.6
2018-Jan-11 19:30N 34°28' E 134°33'612.7
2018-Jan-11 19:00N 34°25' E 134°26'612.4
2018-Jan-11 18:30N 34°24' E 134°19'612.4
2018-Jan-11 18:00N 34°25' E 134°11'7611.6
2018-Jan-11 11:24N 34°06' E 132°42'512.6
2018-Jan-11 11:00N 34°04' E 132°36'712.5
2018-Jan-11 10:26N 34°02' E 132°28'612.8
2018-Jan-11 09:59N 34°06' E 132°24'612.8
2018-Jan-11 09:30N 34°11' E 132°20'511.0
2018-Jan-11 09:00N 34°16' E 132°23'611.5
2018-Jan-11 08:31N 34°19' E 132°29'2 4.8
2018-Jan-11 08:01N 34°21' E 132°31'0 0.0
2018-Jan-11 07:27N 34°21' E 132°31'0 0.0
2018-Jan-11 07:01N 34°21' E 132°31'0 0.0
2018-Jan-11 06:28N 34°21' E 132°31'0 0.0
2018-Jan-11 06:01N 34°21' E 132°31'0 0.0
2018-Jan-11 05:25N 34°21' E 132°31'0 0.0
2018-Jan-11 05:00N 34°21' E 132°31'0 0.0
2018-Jan-11 04:31N 34°21' E 132°31'0 0.0
2018-Jan-11 04:00N 34°21' E 132°31'0 0.0
2018-Jan-11 03:30N 34°21' E 132°31'0 0.0
2018-Jan-11 03:00N 34°21' E 132°31'0 0.0
2018-Jan-11 02:30N 34°21' E 132°31'2 4.0
2018-Jan-11 02:01N 34°20' E 132°29'4 8.6
2018-Jan-11 01:31N 34°17' E 132°25'611.1
2018-Jan-11 01:00N 34°12' E 132°22'611.8
2018-Jan-11 00:30N 34°06' E 132°25'611.7
2018-Jan-10 23:57N 34°02' E 132°31'511.5
2018-Jan-10 23:30N 34°04' E 132°37'8210.8
2018-Jan-10 15:54N 34°24' E 134°13'611.4
2018-Jan-10 15:22N 34°24' E 134°20'512.0
2018-Jan-10 15:00N 34°26' E 134°25'611.8
2018-Jan-10 14:30N 34°28' E 134°31'611.7
2018-Jan-10 14:01N 34°30' E 134°38'611.5
2018-Jan-10 13:31N 34°33' E 134°44'611.0
2018-Jan-10 13:01N 34°35' E 134°51'  
Track history (hours):
 
Tides and Currents Weather Stations Pressure Air Temp Water Temp Dewpoint Dewpoint Depression Visibility Wind Speed Wind Dir Waves Ship Positions

Ashiya

Last reported at 2018-Jan-20 13:00 UTC. Time now 2018-Jan-20 13:14 UTC.
Position N 34°26' E 134°09'.

Length 96 m; draft 4.5 m.

Type: Cargo ship. MMSI: 431501871.

Date/timePositionNaut miles runAvg speedWind from/ knotsBaromVisibWave heightAir tempDewpointWater temp
2018-Jan-20 13:00N 34°26' E 134°09'913.3
2018-Jan-20 12:20N 34°24' E 134°20'413.1
2018-Jan-20 12:00N 34°26' E 134°25'612.9
2018-Jan-20 11:31N 34°28' E 134°32'612.9
2018-Jan-20 11:01N 34°30' E 134°39'612.7
2018-Jan-20 10:30N 34°33' E 134°46'612.6
2018-Jan-20 10:00N 34°36' E 134°53'612.0
2018-Jan-20 09:31N 34°38' E 135°00'510.2
2018-Jan-20 09:01N 34°36' E 135°06'612.7
2018-Jan-20 08:30N 34°37' E 135°13'4 7.5
2018-Jan-20 08:00N 34°41' E 135°14'1 1.7
2018-Jan-20 07:28N 34°41' E 135°12'0 0.0
2018-Jan-20 06:58N 34°41' E 135°12'0 0.0
2018-Jan-20 06:28N 34°41' E 135°12'0 0.0
2018-Jan-20 05:58N 34°41' E 135°12'0 0.0
2018-Jan-20 05:28N 34°41' E 135°12'0 0.0
2018-Jan-20 04:58N 34°41' E 135°12'0 0.0
2018-Jan-20 04:28N 34°41' E 135°12'0 0.0
2018-Jan-20 03:58N 34°41' E 135°12'0 0.0
2018-Jan-20 03:28N 34°41' E 135°12'0 0.0
2018-Jan-20 02:55N 34°41' E 135°12'0 0.0
2018-Jan-20 02:25N 34°41' E 135°12'0 0.0
2018-Jan-20 01:55N 34°41' E 135°12'0 0.0
2018-Jan-20 01:28N 34°41' E 135°12'0 0.0
2018-Jan-20 00:58N 34°41' E 135°12'0 0.0
2018-Jan-20 00:28N 34°41' E 135°12'0 0.0
2018-Jan-19 23:58N 34°41' E 135°12'0 0.0
2018-Jan-19 23:28N 34°41' E 135°12'0 0.0
2018-Jan-19 22:58N 34°41' E 135°12'0 0.0
2018-Jan-19 22:28N 34°41' E 135°12'0 0.0
2018-Jan-19 21:55N 34°41' E 135°12'0 0.0
2018-Jan-19 21:28N 34°41' E 135°12'0 0.0
2018-Jan-19 20:58N 34°41' E 135°12'0 0.0
2018-Jan-19 20:28N 34°41' E 135°12'0 0.0
2018-Jan-19 19:58N 34°41' E 135°12'0 0.0
2018-Jan-19 19:28N 34°41' E 135°12'0 0.0
2018-Jan-19 18:58N 34°41' E 135°12'0 0.0
2018-Jan-19 18:28N 34°41' E 135°12'0 0.0
2018-Jan-19 17:58N 34°41' E 135°12'0 0.0
2018-Jan-19 17:28N 34°41' E 135°12'0 0.0
2018-Jan-19 16:58N 34°41' E 135°12'0 0.0
2018-Jan-19 16:25N 34°41' E 135°12'0 0.0
2018-Jan-19 15:58N 34°41' E 135°12'0 0.0
2018-Jan-19 15:25N 34°41' E 135°12'0 0.0
2018-Jan-19 14:58N 34°41' E 135°12'0 0.0
2018-Jan-19 14:28N 34°41' E 135°12'0 0.0
2018-Jan-19 13:58N 34°41' E 135°12'0 0.0
2018-Jan-19 13:28N 34°41' E 135°12'0 0.0
2018-Jan-19 12:58N 34°41' E 135°12'0 0.0
2018-Jan-19 12:28N 34°41' E 135°12'0 0.0
2018-Jan-19 11:58N 34°41' E 135°12'0 0.0
2018-Jan-19 11:28N 34°41' E 135°12'0 0.0
2018-Jan-19 10:58N 34°41' E 135°12'0 0.0
2018-Jan-19 10:25N 34°41' E 135°12'0 0.0
2018-Jan-19 09:58N 34°41' E 135°12'0 0.0
2018-Jan-19 09:28N 34°41' E 135°12'0 0.0
2018-Jan-19 08:58N 34°41' E 135°12'0 0.0
2018-Jan-19 08:28N 34°41' E 135°12'0 0.0
2018-Jan-19 07:58N 34°41' E 135°12'0 0.0
2018-Jan-19 07:30N 34°41' E 135°12'3 5.2
2018-Jan-19 07:01N 34°39' E 135°15'0 0.0
2018-Jan-19 06:30N 34°39' E 135°15'0 0.0
2018-Jan-19 06:00N 34°39' E 135°15'0 0.0
2018-Jan-19 05:30N 34°39' E 135°15'1 2.2
2018-Jan-19 05:00N 34°40' E 135°15'1 2.9
2018-Jan-19 04:30N 34°41' E 135°17'0 0.2
2018-Jan-19 04:00N 34°41' E 135°17'4 7.6
2018-Jan-19 03:30N 34°37' E 135°15'612.6
2018-Jan-19 03:00N 34°35' E 135°08'611.1
2018-Jan-19 02:31N 34°37' E 135°02'611.6
2018-Jan-19 02:00N 34°35' E 134°55'510.4
2018-Jan-19 01:30N 34°33' E 134°49'611.0
2018-Jan-19 01:00N 34°31' E 134°43'611.9
2018-Jan-19 00:30N 34°29' E 134°36'612.3
2018-Jan-19 00:00N 34°27' E 134°29'612.3
2018-Jan-18 23:29N 34°24' E 134°22'611.7
2018-Jan-18 22:59N 34°24' E 134°15'7910.7
2018-Jan-18 15:37N 34°06' E 132°42'212.3
2018-Jan-18 15:29N 34°05' E 132°40'612.5
2018-Jan-18 15:00N 34°02' E 132°34'611.2
2018-Jan-18 14:30N 34°04' E 132°28'612.8
2018-Jan-18 14:00N 34°09' E 132°22'612.9
2018-Jan-18 13:30N 34°15' E 132°22'612.5
2018-Jan-18 13:00N 34°18' E 132°28'3 6.6
2018-Jan-18 12:30N 34°21' E 132°31'0 0.0
2018-Jan-18 11:59N 34°21' E 132°31'0 0.0
2018-Jan-18 11:29N 34°21' E 132°31'0 0.0
2018-Jan-18 10:59N 34°21' E 132°31'0 0.0
2018-Jan-18 10:29N 34°21' E 132°31'0 0.0
2018-Jan-18 09:59N 34°21' E 132°31'0 0.0
2018-Jan-18 09:26N 34°21' E 132°31'0 0.0
2018-Jan-18 08:59N 34°21' E 132°31'0 0.0
2018-Jan-18 08:26N 34°21' E 132°31'0 0.0
2018-Jan-18 07:59N 34°21' E 132°31'0 0.0
2018-Jan-18 07:29N 34°21' E 132°31'0 0.0
2018-Jan-18 06:59N 34°21' E 132°31'0 0.0
2018-Jan-18 06:29N 34°21' E 132°31'0 0.0
2018-Jan-18 05:59N 34°21' E 132°31'0 0.0
2018-Jan-18 05:29N 34°21' E 132°31'0 0.0
2018-Jan-18 04:59N 34°21' E 132°31'0 0.0
2018-Jan-18 04:30N 34°21' E 132°31'3 5.2
2018-Jan-18 04:00N 34°19' E 132°29'2 5.0
2018-Jan-18 03:30N 34°18' E 132°27'510.8
2018-Jan-18 03:00N 34°14' E 132°22'712.9
2018-Jan-18 02:28N 34°07' E 132°24'713.1
2018-Jan-18 01:55N 34°03' E 132°31'511.3
2018-Jan-18 01:31N 34°04' E 132°36'612.1
2018-Jan-18 01:01N 34°06' E 132°43'  
2018-Jan-12 15:00N 34°30' E 134°38'611.4
2018-Jan-12 14:30N 34°32' E 134°44'611.0
2018-Jan-12 14:00N 34°35' E 134°51'510.3
2018-Jan-12 13:31N 34°37' E 134°56'5 9.6
2018-Jan-12 13:00N 34°37' E 135°02'510.8
2018-Jan-12 12:31N 34°36' E 135°09'611.8
2018-Jan-12 12:01N 34°37' E 135°16'3 5.5
2018-Jan-12 11:30N 34°40' E 135°14'0 0.1
2018-Jan-12 11:00N 34°40' E 135°14'0 0.1
2018-Jan-12 10:30N 34°40' E 135°14'0 0.6
2018-Jan-12 10:00N 34°39' E 135°15'2 4.0
2018-Jan-12 09:31N 34°41' E 135°17'0 0.4
2018-Jan-12 08:58N 34°41' E 135°17'0 0.1
2018-Jan-12 08:28N 34°41' E 135°17'0 0.0
2018-Jan-12 07:58N 34°41' E 135°17'0 0.1
2018-Jan-12 07:28N 34°41' E 135°17'0 0.1
2018-Jan-12 06:58N 34°41' E 135°17'0 0.0
2018-Jan-12 06:28N 34°41' E 135°17'0 0.0
2018-Jan-12 06:00N 34°41' E 135°17'1 3.0
2018-Jan-12 05:30N 34°40' E 135°18'2 3.1
2018-Jan-12 04:58N 34°39' E 135°19'0 0.0
2018-Jan-12 04:28N 34°39' E 135°19'0 0.0
2018-Jan-12 03:58N 34°39' E 135°19'0 0.0
2018-Jan-12 03:28N 34°39' E 135°19'0 0.0
2018-Jan-12 02:58N 34°39' E 135°19'0 0.0
2018-Jan-12 02:28N 34°39' E 135°19'0 0.0
2018-Jan-12 01:58N 34°39' E 135°19'0 0.0
2018-Jan-12 01:28N 34°39' E 135°19'0 0.0
2018-Jan-12 00:58N 34°39' E 135°19'0 0.0
2018-Jan-12 00:28N 34°39' E 135°19'0 0.0
2018-Jan-11 23:58N 34°39' E 135°19'0 0.0
2018-Jan-11 23:28N 34°39' E 135°19'0 0.2
2018-Jan-11 23:00N 34°39' E 135°19'611.9
2018-Jan-11 22:30N 34°35' E 135°13'612.7
2018-Jan-11 22:00N 34°35' E 135°06'510.9
2018-Jan-11 21:31N 34°37' E 134°60'611.5
2018-Jan-11 21:00N 34°35' E 134°53'611.2
2018-Jan-11 20:31N 34°33' E 134°47'612.2
2018-Jan-11 20:00N 34°30' E 134°40'612.6
2018-Jan-11 19:30N 34°28' E 134°33'612.7
2018-Jan-11 19:00N 34°25' E 134°26'612.4
2018-Jan-11 18:30N 34°24' E 134°19'612.4
2018-Jan-11 18:00N 34°25' E 134°11'7611.6
2018-Jan-11 11:24N 34°06' E 132°42'512.6
2018-Jan-11 11:00N 34°04' E 132°36'712.5
2018-Jan-11 10:26N 34°02' E 132°28'612.8
2018-Jan-11 09:59N 34°06' E 132°24'612.8
2018-Jan-11 09:30N 34°11' E 132°20'511.0
2018-Jan-11 09:00N 34°16' E 132°23'611.5
2018-Jan-11 08:31N 34°19' E 132°29'2 4.8
2018-Jan-11 08:01N 34°21' E 132°31'0 0.0
2018-Jan-11 07:27N 34°21' E 132°31'0 0.0
2018-Jan-11 07:01N 34°21' E 132°31'0 0.0
2018-Jan-11 06:28N 34°21' E 132°31'0 0.0
2018-Jan-11 06:01N 34°21' E 132°31'0 0.0
2018-Jan-11 05:25N 34°21' E 132°31'0 0.0
2018-Jan-11 05:00N 34°21' E 132°31'0 0.0
2018-Jan-11 04:31N 34°21' E 132°31'0 0.0
2018-Jan-11 04:00N 34°21' E 132°31'0 0.0
2018-Jan-11 03:30N 34°21' E 132°31'0 0.0
2018-Jan-11 03:00N 34°21' E 132°31'0 0.0
2018-Jan-11 02:30N 34°21' E 132°31'2 4.0
2018-Jan-11 02:01N 34°20' E 132°29'4 8.6
2018-Jan-11 01:31N 34°17' E 132°25'611.1
2018-Jan-11 01:00N 34°12' E 132°22'611.8
2018-Jan-11 00:30N 34°06' E 132°25'611.7
2018-Jan-10 23:57N 34°02' E 132°31'511.5
2018-Jan-10 23:30N 34°04' E 132°37'8210.8
2018-Jan-10 15:54N 34°24' E 134°13'611.4
2018-Jan-10 15:22N 34°24' E 134°20'512.0
2018-Jan-10 15:00N 34°26' E 134°25'611.8
2018-Jan-10 14:30N 34°28' E 134°31'611.7
2018-Jan-10 14:01N 34°30' E 134°38'611.5
2018-Jan-10 13:31N 34°33' E 134°44'611.0
2018-Jan-10 13:01N 34°35' E 134°51'  

Dump ship's entire track history